Girard, TX

7:40 AM CST on January 27, 2015 (GMT -0600)
RAWS JAYTON TX US | Change Station
CLOSE
Current Station
Personal Weather Station
Location: Girard, TX
Elevation: 1904 ft
Nearby Weather Stations

Elev 1904 ft 33.23 °N, 100.57 °W | Updated 54 minutes ago

Clear
Clear
40 °F
Feels Like 36 °F
N
6
Wind Variable Wind from West
Gusts 10.0 mph

Today
High -- | Low -- °F
--% Chance of Precip.
Yesterday
High -- | Low -- °F
Precip. -- in
7:41 AM 6:09 PM
First Quarter, 54% visible
Pressure 30.24 in
Visibility 10.0 miles
Clouds Clear
Windchill 36 °F
Dew Point 34 °F
Humidity 79%
Rainfall 0.00 in
Snow Depth Not available.
UV 0 out of 12
Pollen 6.70 out of 12
Air Quality Not available.
Flu Activity Not available.
METAR KSWW 271315Z AUTO 23009KT 10SM CLR 07/01 A3024 RMK AO2 T00700013

More Conditions Fewer Conditions

Pressure 30.24 in
Visibility 10.0 miles
Clouds Clear
Windchill 36 °F
Dew Point 34 °F
Humidity 79%
Rainfall 0.00 in
Snow Depth Not available.
UV 0 out of 12
Pollen 6.70 out of 12
Air Quality Not available.
Flu Activity Not available.
METAR KSWW 271315Z AUTO 23009KT 10SM CLR 07/01 A3024 RMK AO2 T00700013

More Conditions Fewer Conditions

10-Day Weather Forecast

Almanac

Astronomy

Jan. 27, 2015 Rise Set
Actual Time
Civil Twilight
Nautical Twilight
Astronomical Twilight
Moon
Length of Visible Light
Length of Day
Tomorrow will be .
, % of the Moon is Illuminated

Today's Extremes

State Highs State Lows

Community

WunderPhotos

Upload Photos

1,790,628 photos uploaded!

WunderBlogs® & News

Nearby

Air Quality

  Air Quality AQ Index Pollutant
Not available.

Snow Depth

Station Depth Elevation

Earthquake Activity

City Distance Mag. Time & Date
Minimum magnitude displayed is 2.5.

Coastal Water Temperatures

Place Temperature

Nearby Weather Stations